Time;durP1;ratioP1;P1;durP2;ratioP2;P2;SDS_P1;SDS_P2;PMS_P1;PMS_P2;Temp;Humidity;BMP_temperature;BMP_pressure;BME280_temperature;BME280_humidity;BME280_pressure;Samples;Min_cycle;Max_cycle;Signal;HPM_P1;HPM_P2
2021/03/08 00:00:37;;;;;;;19.10;13.68;;;;;;;4.41;69.35;100879.75;5099462;28;20054;-75
2021/03/08 00:03:41;;;;;;;17.88;13.90;;;;;;;4.38;69.43;100875.44;5089716;28;20402;-74
2021/03/08 00:06:45;;;;;;;17.38;14.35;;;;;;;4.40;69.65;100876.22;5107019;28;20044;-72
2021/03/08 00:09:50;;;;;;;18.13;14.05;;;;;;;4.36;69.77;100872.00;5113513;28;20051;-75
2021/03/08 00:12:54;;;;;;;20.73;14.07;;;;;;;4.35;69.79;100869.41;5111815;28;20051;-74
2021/03/08 00:15:59;;;;;;;19.60;13.57;;;;;;;4.33;69.84;100860.69;5113267;28;20509;-76
2021/03/08 00:19:03;;;;;;;19.58;14.70;;;;;;;4.35;69.65;100859.66;5114325;28;20496;-73
2021/03/08 00:22:07;;;;;;;20.33;14.07;;;;;;;4.35;69.74;100866.75;5102995;28;20047;-74
2021/03/08 00:25:23;;;;;;;20.48;13.13;;;;;;;4.40;69.57;100862.06;5110763;28;20052;-74
2021/03/08 00:28:27;;;;;;;18.67;14.60;;;;;;;4.34;69.25;100871.25;5107650;28;20397;-74
2021/03/08 00:31:31;;;;;;;20.02;14.82;;;;;;;4.33;69.46;100863.34;5116159;28;20050;-74
2021/03/08 00:34:36;;;;;;;20.08;14.88;;;;;;;4.30;69.61;100861.69;5111609;28;20064;-74
2021/03/08 00:37:41;;;;;;;16.85;13.77;;;;;;;4.23;69.82;100867.44;5112935;28;20047;-74
2021/03/08 00:40:45;;;;;;;20.67;13.43;;;;;;;4.21;70.08;100864.00;5114412;28;20046;-74
2021/03/08 00:43:50;;;;;;;16.35;14.60;;;;;;;4.19;70.36;100858.78;5115446;28;20043;-75
2021/03/08 00:46:53;;;;;;;;;;;;;;;4.16;70.52;100863.38;5099039;28;20395;-76
2021/03/08 00:49:58;;;;;;;25.90;14.68;;;;;;;4.14;70.57;100855.50;5103592;28;19916;-75
2021/03/08 00:53:03;;;;;;;18.27;13.88;;;;;;;4.09;70.60;100854.91;5109804;28;20040;-75
2021/03/08 00:56:13;;;;;;;16.60;13.82;;;;;;;4.04;71.01;100856.94;5084983;28;20047;-72
2021/03/08 00:59:17;;;;;;;16.33;13.98;;;;;;;4.05;70.90;100848.00;5099406;28;20050;-74
2021/03/08 01:02:22;;;;;;;17.15;14.13;;;;;;;4.02;70.69;100853.50;5112535;28;20035;-74
2021/03/08 01:05:27;;;;;;;20.23;14.35;;;;;;;4.02;70.81;100844.69;5101538;28;20521;-76
2021/03/08 01:08:34;;;;;;;17.80;13.07;;;;;;;3.99;70.69;100844.84;5098209;28;20046;-75
2021/03/08 01:11:38;;;;;;;16.85;13.40;;;;;;;3.95;70.25;100839.69;5099099;28;20038;-77
2021/03/08 01:14:50;;;;;;;18.13;14.32;;;;;;;3.97;70.89;100835.13;5091659;28;20071;-74
2021/03/08 01:17:54;;;;;;;20.55;14.30;;;;;;;3.99;70.92;100837.72;5110370;28;20050;-76
2021/03/08 01:20:58;;;;;;;17.50;13.35;;;;;;;4.02;70.72;100831.41;5111535;28;20493;-77
2021/03/08 01:24:03;;;;;;;18.35;14.80;;;;;;;4.02;70.54;100832.25;5112596;28;20051;-75
2021/03/08 01:27:07;;;;;;;21.35;14.60;;;;;;;4.05;70.52;100824.09;5113833;28;20051;-71
2021/03/08 01:30:15;;;;;;;20.88;15.32;;;;;;;4.04;70.59;100825.06;5102352;28;20050;-73
2021/03/08 01:33:20;;;;;;;18.83;14.48;;;;;;;4.03;70.66;100811.84;5111556;28;20054;-74
2021/03/08 01:36:24;;;;;;;17.85;14.68;;;;;;;4.05;70.58;100810.81;5112760;28;20501;-75
2021/03/08 01:39:28;;;;;;;20.20;14.35;;;;;;;3.99;70.79;100808.50;5114111;28;20047;-74
2021/03/08 01:42:33;;;;;;;16.42;13.48;;;;;;;3.99;70.90;100800.56;5109642;28;20058;-74
2021/03/08 01:45:37;;;;;;;19.15;14.13;;;;;;;3.98;70.96;100790.84;5110786;28;20051;-73
2021/03/08 01:48:41;;;;;;;22.90;14.45;;;;;;;3.99;70.76;100795.25;5090451;28;20055;-73
2021/03/08 01:51:45;;;;;;;20.20;14.68;;;;;;;4.00;70.82;100785.47;5092419;28;20528;-73
2021/03/08 01:54:50;;;;;;;18.30;14.60;;;;;;;3.96;70.82;100790.09;5093435;28;20047;-75
2021/03/08 01:57:54;;;;;;;19.85;13.82;;;;;;;3.89;70.85;100786.91;5089162;28;20039;-77
2021/03/08 02:00:59;;;;;;;20.75;14.30;;;;;;;3.91;71.16;100786.81;5089363;28;20099;-75
2021/03/08 02:04:04;;;;;;;19.65;15.40;;;;;;;3.83;71.07;100773.09;5091973;28;20043;-74
2021/03/08 02:07:09;;;;;;;18.02;14.10;;;;;;;3.82;71.14;100774.03;5092788;28;20043;-75
2021/03/08 02:10:15;;;;;;;17.50;14.63;;;;;;;3.81;71.58;100769.66;5088487;28;20059;-74
2021/03/08 02:13:37;;;;;;;21.38;15.57;;;;;;;3.76;71.43;100771.69;5090117;28;20494;-76
2021/03/08 02:17:16;;;;;;;19.98;13.98;;;;;;;3.76;71.65;100761.09;5090009;28;20047;-75
2021/03/08 02:20:48;;;;;;;17.98;15.00;;;;;;;3.70;71.83;100756.13;5090472;28;20051;-74
2021/03/08 02:24:11;;;;;;;20.98;14.82;;;;;;;3.72;71.68;100751.56;5088101;28;20130;-75
2021/03/08 02:27:33;;;;;;;21.92;15.93;;;;;;;3.71;71.77;100749.84;5088359;28;20051;-73
2021/03/08 02:30:43;;;;;;;19.63;15.02;;;;;;;3.68;72.02;100745.56;5089571;28;20051;-74
2021/03/08 02:34:03;;;;;;;23.90;14.80;;;;;;;3.71;71.80;100747.19;5092136;28;20063;-74
2021/03/08 02:37:16;;;;;;;22.10;15.10;;;;;;;3.67;72.33;100746.53;5092310;28;20059;-73
2021/03/08 02:40:26;;;;;;;19.10;15.13;;;;;;;3.63;72.28;100741.47;5090061;28;20043;-76
2021/03/08 02:43:34;;;;;;;18.48;15.20;;;;;;;3.66;72.11;100735.97;5092548;28;20047;-72
2021/03/08 02:46:42;;;;;;;19.50;15.18;;;;;;;3.74;72.02;100731.13;5089784;28;20050;-75
2021/03/08 02:49:49;;;;;;;17.02;14.10;;;;;;;3.71;71.78;100732.13;5111135;28;20062;-73
2021/03/08 02:53:00;;;;;;;20.70;15.55;;;;;;;3.59;72.14;100726.63;5095824;28;20433;-73
2021/03/08 02:56:12;;;;;;;18.17;14.80;;;;;;;3.58;72.24;100719.63;5111517;28;20509;-72
2021/03/08 02:59:19;;;;;;;20.17;15.07;;;;;;;3.51;72.39;100718.19;5109157;28;20054;-76
2021/03/08 03:02:24;;;;;;;20.13;14.77;;;;;;;3.50;72.65;100714.72;5086837;28;20102;-70
2021/03/08 03:05:28;;;;;;;19.65;14.38;;;;;;;3.49;72.64;100715.63;5099563;28;20054;-75
2021/03/08 03:08:34;;;;;;;23.27;15.10;;;;;;;3.48;72.72;100707.78;5100625;28;20046;-73
2021/03/08 03:11:40;;;;;;;18.75;14.77;;;;;;;3.48;72.87;100713.06;5109270;28;20066;-75
2021/03/08 03:14:46;;;;;;;23.23;14.82;;;;;;;3.47;72.81;100706.03;5111212;28;20505;-74
2021/03/08 03:17:52;;;;;;;19.73;14.43;;;;;;;3.46;72.96;100704.31;5112638;28;20042;-74
2021/03/08 03:20:57;;;;;;;18.50;14.38;;;;;;;3.50;72.98;100706.75;5084677;28;20517;-74
2021/03/08 03:24:02;;;;;;;19.63;14.80;;;;;;;3.49;72.83;100705.03;5110453;28;20070;-72
2021/03/08 03:27:07;;;;;;;19.73;14.90;;;;;;;3.52;72.75;100704.00;5114566;28;20502;-76
2021/03/08 03:30:13;;;;;;;20.67;14.13;;;;;;;3.49;72.85;100704.16;5117140;28;20047;-75
2021/03/08 03:33:18;;;;;;;19.25;14.23;;;;;;;3.47;72.86;100706.03;5088462;28;20047;-76
2021/03/08 03:36:25;;;;;;;17.50;14.70;;;;;;;3.45;72.98;100705.28;5114350;28;20062;-74
2021/03/08 03:39:29;;;;;;;16.75;14.00;;;;;;;3.44;73.21;100708.84;5116010;28;20497;-73
2021/03/08 03:42:34;;;;;;;18.20;14.48;;;;;;;3.52;72.84;100709.31;5112090;28;20042;-75
2021/03/08 03:45:39;;;;;;;20.75;15.73;;;;;;;3.49;72.54;100706.81;5100450;28;20405;-73
2021/03/08 03:48:43;;;;;;;18.38;14.70;;;;;;;3.49;72.74;100709.47;5114022;28;20501;-73
2021/03/08 03:51:47;;;;;;;18.88;14.27;;;;;;;3.48;72.87;100702.47;5102764;28;20109;-74
2021/03/08 03:54:52;;;;;;;24.52;14.80;;;;;;;3.50;72.60;100705.88;5116358;28;20110;-75
2021/03/08 03:58:10;;;;;;;16.50;13.80;;;;;;;3.45;72.65;100702.63;5112181;28;20046;-75
2021/03/08 04:01:38;;;;;;;17.77;13.95;;;;;;;3.49;72.72;100710.31;5111403;28;20505;-75
2021/03/08 04:04:51;;;;;;;19.48;14.63;;;;;;;3.56;72.63;100694.94;5101535;28;20505;-75
2021/03/08 04:07:56;;;;;;;18.17;13.43;;;;;;;3.60;72.45;100707.97;5111424;28;20498;-78
2021/03/08 04:11:04;;;;;;;19.63;15.27;;;;;;;3.60;72.45;100710.63;5089146;28;20111;-75
2021/03/08 04:14:14;;;;;;;18.00;14.45;;;;;;;3.62;72.49;100714.06;5115022;28;20125;-76
2021/03/08 04:17:19;;;;;;;21.95;14.52;;;;;;;3.67;72.56;100716.47;5112188;28;20497;-75
2021/03/08 04:20:23;;;;;;;16.90;13.68;;;;;;;3.70;72.33;100721.59;5113404;28;20046;-74
2021/03/08 04:23:29;;;;;;;19.40;14.02;;;;;;;3.75;72.12;100717.75;5114525;28;20046;-76
2021/03/08 04:26:38;;;;;;;18.75;13.88;;;;;;;3.71;72.00;100721.50;5116110;28;20050;-74
2021/03/08 04:29:43;;;;;;;18.30;13.35;;;;;;;3.72;71.97;100717.06;5100738;28;20047;-73
2021/03/08 04:32:50;;;;;;;19.48;14.90;;;;;;;3.69;71.82;100718.09;5114267;28;20046;-76
2021/03/08 04:35:54;;;;;;;18.65;14.85;;;;;;;3.68;71.95;100720.84;5110474;28;20055;-75
2021/03/08 04:39:01;;;;;;;17.55;14.05;;;;;;;3.72;72.14;100722.38;5111505;28;20046;-74
2021/03/08 04:42:07;;;;;;;17.50;14.35;;;;;;;3.72;72.28;100722.38;5113538;28;20043;-76
2021/03/08 04:45:12;;;;;;;18.40;13.57;;;;;;;3.75;72.14;100730.19;5115177;28;20070;-76
2021/03/08 04:48:17;;;;;;;18.10;13.27;;;;;;;3.76;72.28;100722.13;5087017;28;20506;-74
2021/03/08 04:51:22;;;;;;;19.05;14.38;;;;;;;3.74;72.24;100734.63;5112495;28;20042;-76
2021/03/08 04:54:27;;;;;;;17.63;13.68;;;;;;;3.57;72.69;100728.50;5113494;28;20505;-75
2021/03/08 04:57:34;;;;;;;19.85;14.27;;;;;;;3.51;73.40;100720.84;5114927;28;20047;-75
2021/03/08 05:00:38;;;;;;;19.08;14.23;;;;;;;3.51;73.32;100719.06;5111470;28;20105;-75
2021/03/08 05:03:45;;;;;;;17.83;13.13;;;;;;;3.55;73.11;100719.78;5112230;28;20058;-76
2021/03/08 05:06:50;;;;;;;19.83;14.60;;;;;;;3.55;72.94;100722.41;5113956;28;20055;-72
2021/03/08 05:09:55;;;;;;;18.58;13.90;;;;;;;3.46;73.16;100729.06;5115200;28;20050;-76
2021/03/08 05:13:00;;;;;;;18.40;14.02;;;;;;;3.40;73.56;100726.75;5111395;28;20047;-75
2021/03/08 05:16:06;;;;;;;18.90;14.73;;;;;;;3.28;73.83;100730.88;5112611;28;20062;-72
2021/03/08 05:19:11;;;;;;;19.38;14.60;;;;;;;3.23;74.03;100727.59;5113823;28;20071;-75
2021/03/08 05:22:16;;;;;;;19.85;14.98;;;;;;;3.16;73.96;100731.50;5110180;28;20047;-73
2021/03/08 05:25:21;;;;;;;23.48;14.98;;;;;;;3.16;73.97;100736.81;5111316;28;20054;-76
2021/03/08 05:28:25;;;;;;;19.67;14.73;;;;;;;3.16;73.99;100731.50;5112525;28;20105;-74
2021/03/08 05:31:37;;;;;;;18.95;15.05;;;;;;;3.10;73.93;100728.31;5113580;28;20062;-75
2021/03/08 05:34:46;;;;;;;21.40;14.70;;;;;;;3.09;74.08;100731.91;5111513;28;20039;-76
2021/03/08 05:37:51;;;;;;;19.67;15.75;;;;;;;3.16;73.92;100730.69;5113672;28;20109;-75
2021/03/08 05:41:19;;;;;;;20.13;15.55;;;;;;;3.17;73.91;100732.38;5109476;28;20508;-73
2021/03/08 05:44:30;;;;;;;21.95;16.80;;;;;;;3.12;74.01;100731.75;5111760;28;20035;-73
2021/03/08 05:47:57;;;;;;;26.05;17.35;;;;;;;3.13;73.90;100733.47;5114474;28;20039;-75
2021/03/08 05:51:21;;;;;;;25.77;16.55;;;;;;;3.19;73.87;100741.09;5110465;28;20386;-73
2021/03/08 05:54:47;;;;;;;24.83;17.45;;;;;;;3.23;73.72;100730.25;5112261;28;20051;-76
2021/03/08 05:58:20;;;;;;;23.05;16.48;;;;;;;3.35;73.58;100731.44;5113913;28;20047;-74
2021/03/08 06:01:46;;;;;;;36.65;29.30;;;;;;;3.41;73.39;100738.22;5111383;28;20043;-73
2021/03/08 06:05:27;;;;;;;269.67;185.15;;;;;;;3.54;73.14;100741.94;5113064;28;20074;-75
2021/03/08 06:08:49;;;;;;;41.83;28.42;;;;;;;3.69;72.52;100741.13;5113182;28;20036;-75
2021/03/08 06:12:03;;;;;;;20.30;16.27;;;;;;;3.75;71.89;100733.66;5113762;28;20058;-75
2021/03/08 06:15:13;;;;;;;23.02;15.63;;;;;;;3.84;71.51;100740.28;5087700;28;20042;-76
2021/03/08 06:18:19;;;;;;;23.20;15.85;;;;;;;3.89;70.87;100731.16;5109334;28;20038;-76
2021/03/08 06:21:24;;;;;;;19.67;15.70;;;;;;;4.00;70.77;100743.00;5098291;28;20055;-75
2021/03/08 06:24:29;;;;;;;24.75;16.17;;;;;;;4.08;70.72;100746.91;5099650;28;20042;-74
2021/03/08 06:27:34;;;;;;;21.98;15.75;;;;;;;4.26;69.79;100740.59;5113499;28;20038;-75
2021/03/08 06:30:37;;;;;;;23.17;16.50;;;;;;;4.43;69.07;100748.50;5109081;28;20035;-74
2021/03/08 06:33:42;;;;;;;26.90;16.70;;;;;;;4.58;69.21;100752.06;5110167;28;20035;-75
2021/03/08 06:36:47;;;;;;;25.98;15.55;;;;;;;4.66;68.61;100746.31;5099692;28;20422;-75
2021/03/08 06:39:51;;;;;;;21.88;14.68;;;;;;;4.81;68.24;100753.41;5112274;28;20066;-74
2021/03/08 06:42:55;;;;;;;21.90;15.77;;;;;;;4.93;67.44;100756.22;5113502;28;20031;-72
2021/03/08 06:46:00;;;;;;;20.73;14.70;;;;;;;5.16;66.67;100752.22;5096889;28;20046;-74
2021/03/08 06:49:05;;;;;;;19.02;14.77;;;;;;;5.37;65.57;100748.28;5110539;28;20047;-73
2021/03/08 06:52:18;;;;;;;20.77;14.82;;;;;;;5.63;65.12;100758.19;5112186;28;20039;-76
2021/03/08 06:55:22;;;;;;;19.95;15.40;;;;;;;5.90;64.15;100759.19;5106591;28;20509;-74
2021/03/08 06:58:26;;;;;;;20.00;13.90;;;;;;;6.23;63.50;100761.56;5107153;28;20062;-73
2021/03/08 07:01:32;;;;;;;;;;;;;;;6.25;62.93;100761.44;5111862;28;20050;-73
2021/03/08 07:04:44;;;;;;;21.30;14.27;;;;;;;6.43;62.74;100762.94;5073500;28;19916;-72
2021/03/08 07:07:55;;;;;;;22.75;14.93;;;;;;;6.58;62.14;100753.97;5061545;28;20047;-75
2021/03/08 07:11:13;;;;;;;20.33;14.73;;;;;;;6.87;61.43;100757.38;5073359;28;20048;-72
2021/03/08 07:14:22;;;;;;;22.48;14.60;;;;;;;7.31;60.44;100757.09;5073630;28;20048;-72
2021/03/08 07:17:37;;;;;;;19.95;13.30;;;;;;;7.63;59.15;100748.56;5079857;28;20055;-72
2021/03/08 07:20:41;;;;;;;20.30;14.27;;;;;;;7.92;58.54;100748.34;5073711;28;20044;-71
2021/03/08 07:23:48;;;;;;;20.05;14.38;;;;;;;8.06;58.31;100743.72;5073364;28;20051;-72
2021/03/08 07:26:54;;;;;;;18.27;13.63;;;;;;;7.97;58.73;100748.88;5073401;28;20047;-76
2021/03/08 07:30:06;;;;;;;25.33;14.40;;;;;;;8.13;58.78;100747.66;5073542;28;20051;-73
2021/03/08 07:33:12;;;;;;;23.20;14.75;;;;;;;7.99;59.53;100749.63;5073464;28;20047;-76
2021/03/08 07:36:16;;;;;;;26.95;14.02;;;;;;;8.41;58.25;100751.94;5073087;28;20597;-75
2021/03/08 07:39:50;;;;;;;21.80;14.05;;;;;;;9.60;55.29;100747.34;5063720;28;20494;-75
2021/03/08 07:42:55;;;;;;;22.70;14.00;;;;;;;12.88;47.67;100740.88;5076719;28;20048;-74
2021/03/08 07:45:59;;;;;;;19.83;12.10;;;;;;;15.27;40.06;100740.06;5073180;28;20037;-74
2021/03/08 07:49:06;;;;;;;14.45;11.60;;;;;;;15.65;38.64;100741.59;5072805;28;20044;-76
2021/03/08 07:52:14;;;;;;;15.73;11.45;;;;;;;16.26;37.38;100741.47;5073625;28;20048;-74
2021/03/08 07:55:19;;;;;;;19.23;12.95;;;;;;;18.24;33.91;100724.94;5073290;28;20049;-75
2021/03/08 07:58:25;;;;;;;23.60;12.68;;;;;;;19.48;31.77;100735.66;5073341;28;20472;-74
2021/03/08 08:01:31;;;;;;;20.40;12.48;;;;;;;21.33;29.19;100742.72;5073328;28;20045;-75
2021/03/08 08:04:36;;;;;;;17.17;12.27;;;;;;;22.82;27.27;100734.97;5060973;28;20048;-72
2021/03/08 08:07:43;;;;;;;14.38;11.40;;;;;;;24.26;25.82;100740.69;5049341;28;20063;-74
2021/03/08 08:10:53;;;;;;;13.95;11.50;;;;;;;25.34;24.82;100734.34;5060643;28;20044;-75
2021/03/08 08:14:00;;;;;;;12.43;11.10;;;;;;;25.38;24.56;100736.41;5075592;28;20044;-77
2021/03/08 08:17:09;;;;;;;16.55;11.73;;;;;;;25.70;23.60;100738.13;5076689;28;20473;-77
2021/03/08 08:20:13;;;;;;;15.63;11.50;;;;;;;26.94;22.65;100740.69;5076591;28;20053;-76
2021/03/08 08:23:24;;;;;;;19.77;12.15;;;;;;;28.54;20.43;100737.66;5076332;28;20048;-78
2021/03/08 08:26:28;;;;;;;17.58;12.05;;;;;;;29.38;19.43;100733.38;5065023;28;20045;-75
2021/03/08 08:29:33;;;;;;;16.05;12.38;;;;;;;29.93;18.55;100719.69;5076437;28;20033;-76
2021/03/08 08:32:58;;;;;;;17.75;12.55;;;;;;;30.17;18.03;100726.75;5076297;28;20036;-78
2021/03/08 08:36:24;;;;;;;19.15;13.38;;;;;;;29.62;18.23;100721.94;5075945;28;20041;-76
2021/03/08 08:39:28;;;;;;;16.60;14.27;;;;;;;29.52;18.95;100726.44;5076470;28;20045;-75
2021/03/08 08:42:34;;;;;;;17.70;14.23;;;;;;;29.70;18.72;100717.91;5076538;28;20044;-77
2021/03/08 08:45:38;;;;;;;19.65;14.10;;;;;;;30.03;18.41;100717.94;5063895;28;20048;-77
2021/03/08 08:49:06;;;;;;;15.18;12.77;;;;;;;29.78;18.69;100725.81;5075696;28;20044;-77
2021/03/08 08:52:10;;;;;;;15.77;12.23;;;;;;;30.31;18.37;100714.19;5063774;28;20049;-76
2021/03/08 08:55:16;;;;;;;14.80;11.95;;;;;;;30.49;18.32;100715.88;5075870;28;20472;-77
2021/03/08 08:58:30;;;;;;;14.82;12.43;;;;;;;29.47;18.35;100712.53;5063610;28;20040;-78
2021/03/08 09:01:37;;;;;;;13.55;10.88;;;;;;;29.25;18.91;100717.09;5082775;28;20039;-78
2021/03/08 09:04:43;;;;;;;16.27;13.05;;;;;;;29.27;18.85;100717.69;5115525;28;20039;-76
2021/03/08 09:07:47;;;;;;;15.32;12.18;;;;;;;29.72;18.07;100712.97;5063689;28;20483;-75
2021/03/08 09:10:51;;;;;;;12.68;10.88;;;;;;;29.23;18.72;100708.22;5075738;28;20048;-76
2021/03/08 09:14:36;;;;;;;12.05;10.80;;;;;;;29.70;18.60;100719.84;5075730;28;20048;-75
2021/03/08 09:17:44;;;;;;;12.75;11.45;;;;;;;29.49;18.88;100722.25;5087820;28;20036;-76
2021/03/08 09:20:48;;;;;;;12.05;10.85;;;;;;;29.28;19.50;100719.38;5116035;28;20422;-76
2021/03/08 09:23:52;;;;;;;12.63;11.23;;;;;;;28.93;18.28;100709.28;5116140;28;20036;-77
2021/03/08 09:26:56;;;;;;;13.10;10.88;;;;;;;28.57;19.40;100709.56;5115083;28;20051;-76
2021/03/08 09:30:04;;;;;;;12.88;11.25;;;;;;;27.75;19.96;100719.75;5115948;28;20043;-75
2021/03/08 09:33:10;;;;;;;11.80;10.70;;;;;;;26.42;21.01;100723.69;5103656;28;20044;-78
2021/03/08 09:36:15;;;;;;;12.50;11.30;;;;;;;25.81;21.85;100717.31;5114965;28;20398;-75
2021/03/08 09:39:19;;;;;;;12.90;11.60;;;;;;;24.58;23.76;100726.03;5114935;28;20044;-74
2021/03/08 09:42:23;;;;;;;15.27;12.20;;;;;;;22.23;25.79;100724.56;5103300;28;20464;-75
2021/03/08 09:45:31;;;;;;;15.02;12.40;;;;;;;19.75;29.96;100728.78;5115600;28;20039;-76
2021/03/08 09:48:37;;;;;;;14.48;13.00;;;;;;;18.40;32.47;100729.44;5115316;28;20044;-74
2021/03/08 09:51:41;;;;;;;18.98;13.88;;;;;;;17.02;35.01;100731.44;5115586;28;20052;-74
2021/03/08 09:54:48;;;;;;;15.77;14.07;;;;;;;15.85;36.73;100728.72;5115431;28;20385;-76
2021/03/08 09:57:53;;;;;;;16.67;14.82;;;;;;;15.18;38.17;100719.38;5105965;28;20047;-73
2021/03/08 10:01:01;;;;;;;17.75;14.60;;;;;;;14.79;39.65;100723.34;5090131;28;20040;-74
2021/03/08 10:04:06;;;;;;;16.13;14.52;;;;;;;14.23;40.71;100720.78;5096906;28;20036;-75
2021/03/08 10:07:11;;;;;;;18.20;15.07;;;;;;;14.04;40.86;100721.75;5093394;28;20036;-72
2021/03/08 10:10:16;;;;;;;18.27;15.52;;;;;;;13.64;42.63;100719.28;5110921;28;20036;-74
2021/03/08 10:13:22;;;;;;;17.05;15.23;;;;;;;13.21;44.33;100718.09;5115133;28;20044;-77
2021/03/08 10:16:29;;;;;;;21.90;14.93;;;;;;;12.86;44.46;100707.81;5114898;28;20043;-75
2021/03/08 10:19:39;;;;;;;19.48;13.88;;;;;;;12.51;43.87;100716.41;5102309;28;20044;-77
2021/03/08 10:22:43;;;;;;;16.45;14.70;;;;;;;12.49;45.39;100712.16;5114198;28;20047;-77
2021/03/08 10:25:48;;;;;;;17.63;14.77;;;;;;;12.68;45.74;100707.66;5114913;28;20043;-75
2021/03/08 10:28:52;;;;;;;20.35;15.00;;;;;;;13.10;43.78;100708.28;5114422;28;20048;-76
2021/03/08 10:31:57;;;;;;;18.02;14.85;;;;;;;12.84;45.53;100705.25;5101074;28;20061;-77
2021/03/08 10:35:01;;;;;;;18.73;14.90;;;;;;;12.77;46.87;100695.19;5114502;28;20043;-77
2021/03/08 10:38:06;;;;;;;17.73;14.43;;;;;;;13.02;46.44;100700.03;5114515;28;20490;-77
2021/03/08 10:41:12;;;;;;;17.98;15.23;;;;;;;12.99;46.07;100700.28;5114687;28;20039;-76
2021/03/08 10:44:21;;;;;;;16.95;14.98;;;;;;;12.92;45.90;100700.03;5114625;28;20043;-77
2021/03/08 10:47:25;;;;;;;18.63;15.35;;;;;;;12.74;45.77;100699.00;5114173;28;20486;-78
2021/03/08 10:50:44;;;;;;;20.08;14.98;;;;;;;12.65;46.92;100701.69;5093424;28;20044;-77
2021/03/08 10:54:03;;;;;;;18.90;16.55;;;;;;;12.65;47.53;100690.91;5094019;28;20036;-76
2021/03/08 10:57:07;;;;;;;17.98;16.00;;;;;;;12.83;46.88;100692.78;5094122;28;20044;-75
2021/03/08 11:00:19;;;;;;;19.65;15.32;;;;;;;12.96;48.15;100689.81;5093368;28;20040;-82
2021/03/08 11:03:54;;;;;;;21.30;17.08;;;;;;;13.03;46.50;100688.25;5094195;28;20468;-73
2021/03/08 11:06:59;;;;;;;21.30;16.95;;;;;;;13.00;47.42;100685.84;5012250;28;20042;-77
2021/03/08 11:10:05;;;;;;;21.10;18.00;;;;;;;13.13;47.90;100688.28;5012147;28;20049;-77
2021/03/08 11:13:08;;;;;;;23.30;18.23;;;;;;;13.01;47.50;100679.47;5012392;28;20428;-76
2021/03/08 11:16:14;;;;;;;19.50;16.90;;;;;;;13.07;47.12;100688.84;5012127;28;20054;-76
2021/03/08 11:19:20;;;;;;;21.83;17.52;;;;;;;13.11;47.64;100680.31;5011903;28;20038;-76
2021/03/08 11:22:24;;;;;;;23.15;17.77;;;;;;;13.12;47.38;100679.34;5011330;28;20050;-76
2021/03/08 11:25:38;;;;;;;19.10;17.10;;;;;;;12.83;47.46;100673.94;5011922;28;20046;-75
2021/03/08 11:28:43;;;;;;;24.40;18.38;;;;;;;12.69;47.79;100678.88;5012079;28;20062;-73
2021/03/08 11:31:53;;;;;;;20.77;18.60;;;;;;;12.56;48.59;100681.84;5011856;28;20038;-77
2021/03/08 11:34:58;;;;;;;21.67;19.35;;;;;;;12.45;48.94;100678.41;5011803;28;20050;-76
2021/03/08 11:38:06;;;;;;;23.13;19.52;;;;;;;12.43;48.97;100672.31;5011856;28;20049;-75
2021/03/08 11:41:11;;;;;;;20.80;18.10;;;;;;;12.44;49.52;100669.50;5011067;28;20042;-75
2021/03/08 11:44:15;;;;;;;21.70;19.50;;;;;;;12.39;48.50;100659.13;5092929;28;20048;-75
2021/03/08 11:47:20;;;;;;;23.90;18.75;;;;;;;12.35;48.01;100652.31;5092497;28;20048;-75
2021/03/08 11:50:26;;;;;;;25.35;19.42;;;;;;;12.29;48.11;100646.66;5089032;28;20036;-74
2021/03/08 11:53:30;;;;;;;22.80;18.90;;;;;;;12.17;47.63;100648.59;5095293;28;20040;-72
2021/03/08 11:56:35;;;;;;;20.13;18.00;;;;;;;12.11;47.60;100653.69;5092156;28;20499;-75
2021/03/08 11:59:39;;;;;;;21.20;18.90;;;;;;;11.98;48.10;100648.53;5077432;28;20395;-76
2021/03/08 12:02:43;;;;;;;22.20;18.85;;;;;;;11.96;47.79;100641.59;5096562;28;20040;-76
2021/03/08 12:05:47;;;;;;;22.35;19.10;;;;;;;12.02;47.66;100644.59;5097263;28;20048;-75
2021/03/08 12:08:51;;;;;;;22.30;19.50;;;;;;;12.07;48.66;100620.78;5097214;28;20043;-75
2021/03/08 12:11:55;;;;;;;21.08;18.88;;;;;;;12.23;48.12;100626.50;5096336;28;20043;-76
2021/03/08 12:15:00;;;;;;;23.30;19.70;;;;;;;12.14;47.91;100621.97;5096721;28;20047;-74
2021/03/08 12:18:04;;;;;;;27.65;21.77;;;;;;;12.10;48.53;100609.75;5097287;28;20463;-73
2021/03/08 12:21:11;;;;;;;23.15;20.73;;;;;;;12.18;48.23;100607.25;5096050;28;20499;-74
2021/03/08 12:24:15;;;;;;;23.67;20.85;;;;;;;12.31;48.44;100598.91;5096729;28;20044;-76
2021/03/08 12:27:19;;;;;;;25.55;21.30;;;;;;;12.25;47.49;100592.25;5096707;28;20459;-76
2021/03/08 12:30:24;;;;;;;25.33;20.52;;;;;;;12.21;47.27;100598.91;5096654;28;20392;-73
2021/03/08 12:33:29;;;;;;;23.40;20.88;;;;;;;12.12;47.91;100580.88;5096509;28;20048;-76
2021/03/08 12:36:33;;;;;;;25.52;20.33;;;;;;;12.06;48.01;100588.66;5094265;28;20052;-76
2021/03/08 12:39:37;;;;;;;22.33;19.45;;;;;;;12.09;47.98;100574.94;5092101;28;20482;-73
2021/03/08 12:43:00;;;;;;;22.25;19.23;;;;;;;12.15;47.70;100572.53;5082181;28;20036;-74
2021/03/08 12:46:04;;;;;;;24.08;19.65;;;;;;;12.19;47.18;100573.13;5095571;28;20040;-77
2021/03/08 12:49:09;;;;;;;22.85;20.48;;;;;;;12.14;47.71;100567.31;5110292;28;20051;-76
2021/03/08 12:52:13;;;;;;;21.10;18.88;;;;;;;12.09;47.51;100554.28;5098908;28;20044;-76
2021/03/08 12:55:18;;;;;;;23.38;19.35;;;;;;;12.15;48.07;100547.44;5103779;28;20055;-72
2021/03/08 12:58:22;;;;;;;24.73;19.48;;;;;;;12.25;47.79;100549.16;5116139;28;20382;-72
2021/03/08 13:01:26;;;;;;;22.15;19.77;;;;;;;12.46;47.65;100546.34;5075841;28;20049;-73
2021/03/08 13:04:31;;;;;;;23.33;19.38;;;;;;;12.44;46.95;100542.97;5075815;28;20044;-73
2021/03/08 13:07:35;;;;;;;26.20;20.10;;;;;;;12.50;47.80;100541.53;5098893;28;20413;-73
2021/03/08 13:10:39;;;;;;;21.80;18.52;;;;;;;12.34;47.19;100542.94;5103513;28;20359;-74
2021/03/08 13:13:43;;;;;;;22.73;18.33;;;;;;;12.35;47.73;100533.88;5104027;28;20043;-77
2021/03/08 13:16:48;;;;;;;22.70;18.75;;;;;;;12.30;48.22;100525.38;5115699;28;20040;-76
2021/03/08 13:19:52;;;;;;;20.77;18.42;;;;;;;12.44;47.86;100523.25;5115106;28;20048;-76
2021/03/08 13:22:58;;;;;;;21.70;17.75;;;;;;;12.54;47.13;100521.41;5075632;28;20041;-75
2021/03/08 13:26:02;;;;;;;22.13;18.38;;;;;;;12.47;46.99;100517.59;5075153;28;20475;-76
2021/03/08 13:29:06;;;;;;;20.02;17.92;;;;;;;12.57;45.91;100516.56;5075340;28;20052;-77
2021/03/08 13:32:10;;;;;;;24.02;16.92;;;;;;;12.51;46.70;100511.78;5100648;28;20039;-75
2021/03/08 13:35:15;;;;;;;19.70;16.75;;;;;;;12.48;46.11;100511.19;5102273;28;20051;-75
2021/03/08 13:38:20;;;;;;;19.48;17.35;;;;;;;12.55;46.61;100506.94;5115822;28;20463;-74
2021/03/08 13:41:25;;;;;;;24.10;17.05;;;;;;;12.66;46.46;100520.25;5115448;28;20043;-74
2021/03/08 13:44:29;;;;;;;19.80;17.25;;;;;;;12.59;47.05;100514.59;5115659;28;20044;-74
2021/03/08 13:47:33;;;;;;;19.13;16.63;;;;;;;12.53;46.55;100517.88;5115438;28;20048;-76
2021/03/08 13:50:38;;;;;;;19.45;16.25;;;;;;;12.50;46.22;100511.91;5115196;28;20039;-74
2021/03/08 13:53:42;;;;;;;19.27;16.88;;;;;;;12.43;46.94;100502.69;5103030;28;20418;-77
2021/03/08 13:56:47;;;;;;;22.92;16.38;;;;;;;12.53;46.70;100499.03;5115409;28;20047;-74
2021/03/08 13:59:51;;;;;;;18.58;15.90;;;;;;;12.55;47.45;100497.03;5102873;28;20043;-74
2021/03/08 14:02:56;;;;;;;22.23;16.92;;;;;;;12.67;47.56;100489.63;5115407;28;20048;-77
2021/03/08 14:06:01;;;;;;;19.75;16.23;;;;;;;12.56;46.31;100495.19;5077389;28;20047;-76
2021/03/08 14:09:05;;;;;;;18.15;15.60;;;;;;;12.57;46.56;100495.03;5102741;28;20040;-74
2021/03/08 14:12:10;;;;;;;18.00;14.02;;;;;;;12.55;47.34;100480.88;5073434;28;20032;-76
2021/03/08 14:15:14;;;;;;;16.63;14.35;;;;;;;12.65;47.19;100488.94;5074374;28;20032;-75
2021/03/08 14:18:19;;;;;;;15.27;13.43;;;;;;;12.65;46.99;100486.22;5096632;28;20040;-77